x

Kaunakakai, Molokai Airport (91186) Weather Station

7:54am - Thu 23rd Feb 2017 All times are HST. -10 hours from GMT.

  • Wind
    16mph, 29mph gusts
  • 空気 Temp 72°f
  • Sea Pressure 1022mb
  • Kaunakakai, Molokai Airport
  • Kaunakakai, Molokai Airport

More Historic Weather Station data

Upgrade to MSW Pro to gain access to the past 30 days of data for over 8000 Wavebouys and Weather Stations around the globe.

Join Pro

Comparision Forecast

View Surf forecast
   
Thu 02/23 7:54am 16 29 mph 1022mb 72f
6:54am 13 22 mph 1022mb 72f
5:54am 12 23 mph 1021.3mb 72f
4:54am 13 22 mph 1021mb 72f
4:01am 15 23 mph 1021mb 72f
3:54am 12 20 mph 1021.3mb 72f
2:54am 15 23 mph 1021.7mb 72f
2:12am 15 24 mph 1022.4mb 71f
1:54am 12 23 mph 1022.7mb 72f
Wed 02/22 12:54am 17 28 mph 1023.7mb 72f
Tue 02/21 11:54pm 15 29 mph 1024mb 72f
10:54pm 12 24 mph 1024.7mb 72f
9:54pm 13 27 mph 1024.7mb 72f
8:54pm 14 24 mph 1024.4mb 72f
7:54pm 18 32 mph 1024mb 72f
6:54pm 20 28 mph 1023.4mb 72f
5:54pm 17 31 mph 1022.4mb 73f
4:54pm 18 32 mph 1022.4mb 75f
3:54pm 28 36 mph 1022mb 75f
2:54pm 23 35 mph 1022.4mb 77f
1:54pm 18 37 mph 1022.7mb 75f
12:54pm 23 36 mph 1023.4mb 75f
11:54am 23 43 mph 1024mb 75f
10:54am 21 32 mph 1024.7mb 77f
9:54am 25 37 mph 1024mb 75f
8:54am 14 24 mph 1025.1mb 73f
7:54am 8
mph
1024.7mb 72f
6:54am 15 24 mph 1024mb 70f
5:54am 14
mph
1023.7mb 70f
4:54am 12 21 mph 1022.7mb 70f
3:54am 14 23 mph 1022.4mb 72f
2:54am 15 25 mph 1022.7mb 70f
1:54am 17 24 mph 1022.7mb 72f
12:54am 13 24 mph 1023.4mb 72f
Mon 02/20 11:54pm 18 25 mph 1023.4mb 72f
10:54pm 13 25 mph 1023.7mb 72f
9:54pm 16 27 mph 1024.4mb 72f
8:54pm 15 24 mph 1024mb 72f
7:54pm 15 25 mph 1023mb 72f
6:54pm 15 31 mph 1022.4mb 72f
5:54pm 18 28 mph 1021.7mb 72f
4:54pm 17 32 mph 1021.3mb 73f
3:54pm 21 33 mph 1020.7mb 75f
2:54pm 18 38 mph 1020.7mb 75f
1:54pm 24 39 mph 1021mb 75f
12:54pm 21 36 mph 1022mb 77f
11:54am 18 35 mph 1022.7mb 75f
10:54am 18 31 mph 1023.4mb 75f
10:11am 18 30 mph 1023.7mb 73f
9:54am 20 32 mph 1023.7mb 73f
9:01am 21 31 mph 1023.4mb 72f
8:54am 21 29 mph 1023mb 72f
7:54am 14 28 mph 1023mb 72f
6:54am 16 27 mph 1022.4mb 72f
5:54am 14 35 mph 1022mb 70f
4:54am 21 30 mph 1021.3mb 70f
3:54am 10 23 mph 1021mb 70f
2:54am 21 35 mph 1021mb 72f
1:54am 14 23 mph 1021.7mb 70f
12:54am 18 29 mph 1022mb 72f
Sun 02/19 11:54pm 18 30 mph 1022.7mb 72f
10:54pm 15 32 mph 1023mb 72f
9:54pm 12 27 mph 1023.4mb 72f
8:54pm 13 22 mph 1023.7mb 72f
7:54pm 13 24 mph 1022.4mb 72f
6:54pm 12 25 mph 1022mb 72f